createdAt,value
2019-03-21T00:00:32.404Z,9.15
2019-03-21T00:03:01.832Z,9.15
2019-03-21T00:05:33.667Z,9.14
2019-03-21T00:08:03.178Z,9.13
2019-03-21T00:11:09.004Z,9.12
2019-03-21T00:13:38.405Z,9.11
2019-03-21T00:16:08.289Z,9.15
2019-03-21T00:18:37.801Z,9.13
2019-03-21T00:21:07.526Z,9.03
2019-03-21T00:23:37.082Z,9.14
2019-03-21T00:26:06.607Z,9.14
2019-03-21T00:28:36.147Z,9.09
2019-03-21T00:31:05.715Z,9.10
2019-03-21T00:33:35.111Z,9.10
2019-03-21T00:36:04.594Z,9.08
2019-03-21T00:38:34.030Z,9.10
2019-03-21T00:41:03.531Z,9.09
2019-03-21T00:43:33.230Z,9.10
2019-03-21T00:46:02.722Z,9.10
2019-03-21T00:48:32.217Z,9.09
2019-03-21T00:51:01.728Z,9.09
2019-03-21T00:53:31.169Z,9.09
2019-03-21T00:56:00.922Z,9.09
2019-03-21T00:58:30.342Z,9.07
2019-03-21T01:01:00.643Z,9.07
2019-03-21T01:03:30.089Z,9.09
2019-03-21T01:16:35.323Z,9.08
2019-03-21T01:19:04.768Z,9.07
2019-03-21T01:21:34.117Z,9.06
2019-03-21T01:24:03.490Z,9.07
2019-03-21T01:26:32.870Z,9.10
2019-03-21T01:29:02.315Z,9.08
2019-03-21T01:31:31.662Z,9.06
2019-03-21T01:34:01.016Z,9.08
2019-03-21T01:36:30.628Z,9.09
2019-03-21T01:39:00.025Z,9.09
2019-03-21T01:41:29.409Z,9.08
2019-03-21T01:43:58.853Z,9.11
2019-03-21T01:46:28.281Z,9.10
2019-03-21T01:48:57.782Z,9.12
2019-03-21T01:51:27.133Z,9.12
2019-03-21T01:53:56.534Z,9.10
2019-03-21T01:56:26.468Z,9.13
2019-03-21T01:58:55.978Z,9.09
2019-03-21T02:01:25.444Z,9.12
2019-03-21T02:03:54.787Z,9.13
2019-03-21T02:06:24.203Z,9.11
2019-03-21T02:08:53.751Z,9.12
2019-03-21T02:11:23.574Z,9.12
2019-03-21T02:13:52.935Z,9.13
2019-03-21T02:16:22.402Z,9.11
2019-03-21T02:18:51.807Z,9.10
2019-03-21T02:21:21.736Z,9.13
2019-03-21T02:30:25.157Z,9.10
2019-03-21T02:33:00.290Z,9.09
2019-03-21T02:35:31.098Z,9.10
2019-03-21T02:38:00.507Z,9.09
2019-03-21T02:40:29.903Z,9.07
2019-03-21T02:42:59.664Z,9.08
2019-03-21T02:45:29.088Z,9.07
2019-03-21T02:47:58.594Z,9.06
2019-03-21T02:50:30.607Z,9.04
2019-03-21T02:53:01.620Z,9.05
2019-03-21T02:55:31.072Z,9.04
2019-03-21T02:58:00.431Z,9.05
2019-03-21T03:00:30.416Z,9.05
2019-03-21T03:03:00.501Z,9.04
2019-03-21T03:05:30.693Z,9.04
2019-03-21T03:08:00.148Z,9.04
2019-03-21T03:10:35.058Z,9.05
2019-03-21T03:13:04.623Z,9.07
2019-03-21T03:15:34.256Z,9.08
2019-03-21T03:18:03.964Z,9.05
2019-03-21T03:20:33.335Z,9.06
2019-03-21T03:23:02.766Z,9.06
2019-03-21T03:25:32.321Z,9.04
2019-03-21T03:28:08.121Z,9.05
2019-03-21T03:30:37.555Z,9.05
2019-03-21T03:33:07.013Z,9.05
2019-03-21T03:35:36.522Z,9.07
2019-03-21T03:38:06.037Z,9.08
2019-03-21T03:40:38.339Z,9.07
2019-03-21T03:43:07.795Z,9.05
2019-03-21T03:45:38.611Z,9.07
2019-03-21T03:48:08.543Z,9.09
2019-03-21T03:50:37.978Z,9.09
2019-03-21T03:53:07.403Z,9.09
2019-03-21T03:55:37.963Z,9.09
2019-03-21T03:58:09.429Z,9.08
2019-03-21T04:00:39.212Z,9.08
2019-03-21T04:03:08.657Z,9.07
2019-03-21T04:05:38.101Z,9.08
2019-03-21T04:08:07.666Z,9.08
2019-03-21T04:10:38.852Z,9.06
2019-03-21T04:13:08.398Z,9.08
2019-03-21T04:15:51.696Z,9.09
2019-03-21T04:18:09.049Z,9.09
2019-03-21T04:20:39.742Z,9.08
2019-03-21T04:23:09.185Z,9.08
2019-03-21T04:25:41.581Z,9.08
2019-03-21T04:28:14.362Z,9.09
2019-03-21T04:30:45.046Z,9.11
2019-03-21T04:33:14.499Z,9.12
2019-03-21T04:35:44.038Z,9.11
2019-03-21T04:38:13.576Z,9.11
2019-03-21T04:40:42.905Z,9.13
2019-03-21T04:43:12.301Z,9.13
2019-03-21T04:45:41.683Z,9.13
2019-03-21T04:48:11.032Z,9.12
2019-03-21T04:50:40.464Z,9.15
2019-03-21T04:53:09.866Z,9.03
2019-03-21T04:55:39.348Z,9.14
2019-03-21T04:58:08.903Z,9.14
2019-03-21T05:00:38.641Z,9.17
2019-03-21T05:03:08.448Z,9.13
2019-03-21T05:05:37.886Z,9.14
2019-03-21T05:08:07.344Z,9.18
2019-03-21T05:10:36.811Z,9.18
2019-03-21T05:13:06.226Z,9.18
2019-03-21T05:15:37.598Z,9.16
2019-03-21T05:18:10.044Z,9.14
2019-03-21T05:20:39.575Z,9.17
2019-03-21T05:23:09.029Z,9.15
2019-03-21T05:25:38.474Z,9.13
2019-03-21T05:28:07.837Z,9.17
2019-03-21T05:30:47.102Z,9.14
2019-03-21T05:33:16.613Z,9.17
2019-03-21T05:35:46.011Z,9.17
2019-03-21T05:38:15.534Z,9.16
2019-03-21T05:40:45.064Z,9.16
2019-03-21T05:43:17.584Z,9.15
2019-03-21T05:45:47.025Z,9.10
2019-03-21T05:48:16.913Z,9.18
2019-03-21T05:51:03.840Z,9.20
2019-03-21T05:53:33.247Z,9.21
2019-03-21T05:56:02.702Z,9.24
2019-03-21T05:58:32.157Z,9.26
2019-03-21T06:01:01.915Z,9.23
2019-03-21T06:03:34.437Z,9.23
2019-03-21T06:06:10.879Z,9.25
2019-03-21T06:08:40.599Z,9.25
2019-03-21T06:11:10.012Z,9.25
2019-03-21T06:13:39.370Z,9.26
2019-03-21T06:16:09.680Z,9.26
2019-03-21T06:19:17.955Z,9.27
2019-03-21T06:22:05.751Z,9.27
2019-03-21T06:24:50.343Z,9.29
2019-03-21T06:27:44.796Z,9.28
2019-03-21T06:30:14.212Z,9.31
2019-03-21T06:32:44.613Z,9.32
2019-03-21T06:35:23.964Z,9.35
2019-03-21T06:47:36.764Z,9.35
2019-03-21T06:50:06.756Z,9.35
2019-03-21T06:52:36.195Z,9.36
2019-03-21T06:55:06.272Z,9.36
2019-03-21T06:57:35.819Z,9.38
2019-03-21T07:00:05.816Z,9.38
2019-03-21T07:02:35.356Z,9.36
2019-03-21T07:05:05.292Z,9.35
2019-03-21T07:07:34.667Z,9.33
2019-03-21T07:10:04.564Z,9.35
2019-03-21T07:12:34.016Z,9.36
2019-03-21T07:15:04.560Z,9.38
2019-03-21T07:17:33.963Z,9.39
2019-03-21T07:20:03.404Z,9.40
2019-03-21T07:22:32.813Z,9.38
2019-03-21T07:25:04.343Z,9.41
2019-03-21T07:27:33.763Z,9.41
2019-03-21T07:30:03.324Z,9.42
2019-03-21T07:32:33.585Z,9.43
2019-03-21T07:35:06.579Z,9.43
2019-03-21T07:37:36.047Z,9.42
2019-03-21T07:40:06.976Z,9.46
2019-03-21T07:42:36.576Z,9.44
2019-03-21T07:45:07.778Z,9.44
2019-03-21T07:47:37.267Z,9.44
2019-03-21T07:50:07.171Z,9.41
2019-03-21T07:52:36.637Z,9.41
2019-03-21T07:55:07.086Z,9.41
2019-03-21T07:57:36.567Z,9.34
2019-03-21T08:00:08.196Z,9.41
2019-03-21T08:02:37.788Z,9.40
2019-03-21T08:05:07.641Z,9.42
2019-03-21T08:07:37.166Z,9.42
2019-03-21T08:10:07.786Z,9.35
2019-03-21T08:12:37.364Z,9.36
2019-03-21T08:15:07.615Z,9.38
2019-03-21T08:17:37.297Z,9.36
2019-03-21T08:20:08.176Z,9.32
2019-03-21T08:22:37.698Z,9.29
2019-03-21T08:25:08.467Z,9.32
2019-03-21T08:27:38.019Z,9.29
2019-03-21T08:30:08.461Z,9.26
2019-03-21T08:32:37.848Z,9.27
2019-03-21T08:35:08.032Z,9.29
2019-03-21T08:37:37.500Z,9.29
2019-03-21T08:40:07.996Z,9.26
2019-03-21T08:42:37.503Z,9.26
2019-03-21T08:45:07.666Z,9.29
2019-03-21T08:47:37.253Z,9.24
2019-03-21T08:50:07.138Z,9.12
2019-03-21T08:52:36.521Z,9.09
2019-03-21T08:55:06.373Z,9.13
2019-03-21T08:57:35.993Z,9.16
2019-03-21T09:00:07.033Z,9.22
2019-03-21T09:02:36.637Z,9.11
2019-03-21T09:05:06.753Z,9.09
2019-03-21T09:07:36.251Z,9.02
2019-03-21T09:10:07.983Z,9.05
2019-03-21T09:12:37.569Z,9.03
2019-03-21T09:15:08.192Z,9.03
2019-03-21T09:17:37.652Z,8.91
2019-03-21T09:20:07.532Z,8.86
2019-03-21T09:22:36.957Z,8.82
2019-03-21T09:25:06.835Z,8.95
2019-03-21T09:27:36.304Z,8.99
2019-03-21T09:30:06.836Z,8.83
2019-03-21T09:32:36.382Z,8.96
2019-03-21T09:35:06.755Z,8.96
2019-03-21T09:37:36.191Z,8.92
2019-03-21T09:40:06.709Z,8.84
2019-03-21T09:42:36.575Z,8.75
2019-03-21T09:45:06.936Z,8.88
2019-03-21T09:47:36.372Z,8.81
2019-03-21T09:50:06.685Z,8.80
2019-03-21T09:52:36.165Z,8.82
2019-03-21T09:55:06.393Z,8.78
2019-03-21T09:57:36.070Z,8.72
2019-03-21T10:00:06.494Z,8.73
2019-03-21T10:02:35.874Z,8.81
2019-03-21T10:05:06.262Z,8.78
2019-03-21T10:07:35.779Z,8.76
2019-03-21T10:10:06.011Z,8.92
2019-03-21T10:12:35.420Z,8.89
2019-03-21T10:15:05.479Z,9.01
2019-03-21T10:17:35.163Z,8.97
2019-03-21T10:20:05.260Z,8.98
2019-03-21T10:22:34.630Z,9.03
2019-03-21T10:25:04.459Z,9.05
2019-03-21T10:27:33.862Z,9.05
2019-03-21T10:30:03.285Z,9.10
2019-03-21T10:32:32.644Z,9.15
2019-03-21T10:35:02.068Z,9.06
2019-03-21T10:37:31.730Z,9.08
2019-03-21T10:40:01.131Z,9.07
2019-03-21T10:42:48.399Z,9.21
2019-03-21T10:45:18.228Z,9.25
2019-03-21T10:47:47.801Z,9.19
2019-03-21T10:50:24.829Z,9.28
2019-03-21T10:52:54.190Z,9.25
2019-03-21T10:55:24.803Z,9.30
2019-03-21T10:57:54.297Z,9.32
2019-03-21T11:00:24.352Z,9.30
2019-03-21T11:02:53.716Z,9.38
2019-03-21T11:05:23.488Z,9.39
2019-03-21T11:07:53.060Z,9.45
2019-03-21T11:10:23.504Z,9.49
2019-03-21T11:12:53.062Z,9.50
2019-03-21T11:15:22.609Z,9.57
2019-03-21T11:17:52.443Z,9.61
2019-03-21T11:20:35.571Z,9.63
2019-03-21T11:23:06.522Z,9.68
2019-03-21T11:25:36.093Z,9.68
2019-03-21T11:28:06.159Z,9.74
2019-03-21T11:30:40.102Z,9.73
2019-03-21T11:33:09.621Z,9.77
2019-03-21T11:35:39.162Z,9.80
2019-03-21T11:38:09.014Z,9.86
2019-03-21T11:40:38.698Z,9.92
2019-03-21T11:43:13.135Z,10.01
2019-03-21T11:45:42.924Z,10.01
2019-03-21T11:48:12.362Z,10.00
2019-03-21T11:50:41.769Z,10.04
2019-03-21T11:53:11.188Z,10.17
2019-03-21T11:55:40.661Z,10.24
2019-03-21T11:58:10.165Z,10.29
2019-03-21T12:00:44.386Z,10.34
2019-03-21T12:03:12.245Z,10.36
2019-03-21T12:05:42.639Z,10.35
2019-03-21T12:08:12.137Z,10.44
2019-03-21T12:10:41.537Z,10.46
2019-03-21T12:13:11.291Z,10.41
2019-03-21T12:15:40.970Z,10.56
2019-03-21T12:18:10.421Z,10.53
2019-03-21T12:20:39.779Z,10.54
2019-03-21T12:23:09.571Z,10.59
2019-03-21T12:25:39.071Z,10.62
2019-03-21T12:28:08.585Z,10.64
2019-03-21T12:30:39.469Z,10.71
2019-03-21T12:33:09.063Z,10.72
2019-03-21T12:35:38.682Z,10.77
2019-03-21T12:38:08.358Z,10.81
2019-03-21T12:40:42.743Z,10.78
2019-03-21T12:43:12.126Z,10.85
2019-03-21T12:45:41.838Z,10.80
2019-03-21T12:48:11.415Z,10.98
2019-03-21T12:50:41.014Z,10.95
2019-03-21T12:56:38.971Z,11.04
2019-03-21T12:59:08.662Z,11.02
2019-03-21T13:01:38.252Z,11.10
2019-03-21T13:04:07.614Z,11.14
2019-03-21T13:06:37.189Z,11.12
2019-03-21T13:09:08.239Z,11.12
2019-03-21T13:11:37.869Z,11.18
2019-03-21T13:14:07.674Z,11.33
2019-03-21T13:16:37.155Z,11.38
2019-03-21T13:19:06.675Z,11.42
2019-03-21T13:21:36.243Z,11.43
2019-03-21T13:24:06.524Z,11.41
2019-03-21T13:26:38.179Z,11.49
2019-03-21T13:29:08.646Z,11.45
2019-03-21T13:31:38.774Z,11.55
2019-03-21T13:34:08.285Z,11.58
2019-03-21T13:36:37.743Z,11.55
2019-03-21T13:39:08.322Z,11.53
2019-03-21T13:41:37.791Z,11.63
2019-03-21T13:44:07.216Z,11.61
2019-03-21T13:46:36.681Z,11.58
2019-03-21T13:49:06.300Z,11.55
2019-03-21T13:51:35.687Z,11.60
2019-03-21T13:54:05.289Z,11.56
2019-03-21T13:56:38.393Z,11.54
2019-03-21T13:59:06.076Z,11.61
2019-03-21T14:01:35.493Z,11.61
2019-03-21T14:04:04.965Z,11.58
2019-03-21T14:06:34.506Z,11.65
2019-03-21T14:09:05.674Z,11.55
2019-03-21T14:11:35.178Z,11.56
2019-03-21T14:14:04.762Z,11.60
2019-03-21T14:16:34.315Z,11.58
2019-03-21T14:19:03.773Z,11.55
2019-03-21T14:21:33.197Z,11.61
2019-03-21T14:24:02.647Z,11.59
2019-03-21T14:26:32.067Z,11.60
2019-03-21T14:29:12.158Z,11.62
2019-03-21T14:31:32.688Z,11.61
2019-03-21T14:34:02.182Z,11.60
2019-03-21T14:36:31.806Z,11.57
2019-03-21T14:39:01.225Z,11.52
2019-03-21T14:41:30.624Z,11.55
2019-03-21T14:44:00.085Z,11.60
2019-03-21T14:46:29.541Z,11.55
2019-03-21T14:48:58.960Z,11.63
2019-03-21T14:51:28.377Z,11.54
2019-03-21T14:53:57.797Z,11.53
2019-03-21T14:56:27.277Z,11.43
2019-03-21T14:58:56.828Z,11.40
2019-03-21T15:01:26.216Z,11.46
2019-03-21T15:03:55.983Z,11.41
2019-03-21T15:06:25.425Z,11.40
2019-03-21T15:08:55.000Z,11.34
2019-03-21T15:11:24.429Z,11.35
2019-03-21T15:13:54.014Z,11.31
2019-03-21T15:16:23.441Z,11.31
2019-03-21T15:18:53.043Z,11.32
2019-03-21T15:21:22.533Z,11.31
2019-03-21T15:23:59.295Z,11.34
2019-03-21T15:26:23.101Z,11.36
2019-03-21T15:28:54.366Z,11.33
2019-03-21T15:31:23.807Z,11.32
2019-03-21T15:33:53.232Z,11.28
2019-03-21T15:36:22.651Z,11.31
2019-03-21T15:38:52.055Z,11.27
2019-03-21T15:41:21.429Z,11.29
2019-03-21T15:43:50.829Z,11.25
2019-03-21T15:46:20.280Z,11.18
2019-03-21T15:48:49.769Z,11.17
2019-03-21T15:51:19.149Z,11.15
2019-03-21T15:53:56.067Z,11.20
2019-03-21T15:56:20.021Z,11.14
2019-03-21T15:58:49.438Z,11.11
2019-03-21T16:01:18.875Z,11.11
2019-03-21T16:03:48.538Z,11.08
2019-03-21T16:06:18.135Z,11.05
2019-03-21T16:08:47.598Z,11.04
2019-03-21T16:11:16.968Z,11.05
2019-03-21T16:13:46.341Z,11.04
2019-03-21T16:16:15.803Z,11.05
2019-03-21T16:18:45.222Z,11.02
2019-03-21T16:21:14.715Z,11.01
2019-03-21T16:23:44.170Z,10.97
2019-03-21T16:26:13.791Z,10.98
2019-03-21T16:28:43.271Z,10.98
2019-03-21T16:31:16.390Z,11.00
2019-03-21T16:33:45.913Z,10.95
2019-03-21T16:36:15.557Z,10.91
2019-03-21T16:38:45.118Z,10.87
2019-03-21T16:41:22.877Z,10.86
2019-03-21T16:43:52.412Z,10.83
2019-03-21T16:46:21.976Z,10.80
2019-03-21T16:48:52.485Z,10.77
2019-03-21T16:51:22.145Z,10.79
2019-03-21T16:57:31.765Z,10.75
2019-03-21T17:00:01.167Z,10.73
2019-03-21T17:02:48.537Z,10.70
2019-03-21T17:05:26.265Z,10.71
2019-03-21T17:07:57.166Z,10.68
2019-03-21T17:10:26.848Z,10.65
2019-03-21T17:12:58.495Z,10.64
2019-03-21T17:15:28.057Z,10.64
2019-03-21T17:17:57.564Z,10.63
2019-03-21T17:20:48.297Z,10.63
2019-03-21T17:23:18.965Z,10.62
2019-03-21T17:25:48.775Z,10.56
2019-03-21T17:28:18.183Z,10.57
2019-03-21T17:30:48.678Z,10.53
2019-03-21T17:33:18.204Z,10.55
2019-03-21T17:35:47.655Z,10.52
2019-03-21T17:38:16.994Z,10.51
2019-03-21T17:40:46.461Z,10.50
2019-03-21T17:43:15.981Z,10.49
2019-03-21T17:45:45.673Z,10.47
2019-03-21T17:48:21.092Z,10.43
2019-03-21T17:50:52.677Z,10.38
2019-03-21T17:53:22.268Z,10.41
2019-03-21T17:55:52.037Z,10.39
2019-03-21T17:58:21.457Z,10.37
2019-03-21T18:00:52.840Z,10.40
2019-03-21T18:03:46.071Z,10.32
2019-03-21T18:06:15.593Z,10.35
2019-03-21T18:08:45.062Z,10.32
2019-03-21T18:11:14.601Z,10.31
2019-03-21T18:13:43.966Z,10.21
2019-03-21T18:16:15.568Z,10.24
2019-03-21T18:18:45.135Z,10.22
2019-03-21T18:21:14.712Z,10.17
2019-03-21T18:23:44.227Z,10.19
2019-03-21T18:26:13.865Z,10.26
2019-03-21T18:28:43.279Z,10.24
2019-03-21T18:31:12.738Z,10.26
2019-03-21T18:33:42.085Z,10.21
2019-03-21T18:36:11.598Z,10.20
2019-03-21T18:38:41.044Z,10.22
2019-03-21T18:41:10.404Z,10.17
2019-03-21T18:43:39.963Z,10.18
2019-03-21T18:46:09.708Z,10.17
2019-03-21T18:48:39.165Z,10.20
2019-03-21T18:51:08.619Z,10.22
2019-03-21T18:53:38.033Z,10.19
2019-03-21T18:56:09.492Z,10.20
2019-03-21T18:58:41.049Z,10.11
2019-03-21T19:01:10.491Z,10.16
2019-03-21T19:03:40.022Z,10.16
2019-03-21T19:06:10.568Z,10.09
2019-03-21T19:08:40.127Z,10.15
2019-03-21T19:11:10.126Z,10.13
2019-03-21T19:13:43.783Z,10.16
2019-03-21T19:16:13.228Z,10.08
2019-03-21T19:18:42.935Z,10.08
2019-03-21T19:21:13.234Z,10.11
2019-03-21T19:23:42.650Z,10.06
2019-03-21T19:26:12.062Z,10.09
2019-03-21T19:28:41.475Z,10.04
2019-03-21T19:31:11.955Z,10.08
2019-03-21T19:33:47.735Z,10.07
2019-03-21T19:36:25.738Z,10.09
2019-03-21T19:38:55.912Z,9.99
2019-03-21T19:41:25.320Z,10.00
2019-03-21T19:43:55.040Z,10.02
2019-03-21T19:46:30.827Z,10.03
2019-03-21T19:48:55.588Z,10.01
2019-03-21T19:51:25.030Z,10.02
2019-03-21T19:53:54.774Z,10.02
2019-03-21T19:56:24.540Z,9.97
2019-03-21T19:58:54.225Z,9.96
2019-03-21T20:01:23.859Z,9.99
2019-03-21T20:03:53.340Z,9.98
2019-03-21T20:06:22.764Z,9.90
2019-03-21T20:08:52.317Z,9.85
2019-03-21T20:11:21.753Z,9.69
2019-03-21T20:13:51.615Z,9.91
2019-03-21T20:16:21.559Z,9.94
2019-03-21T20:18:51.141Z,9.92
2019-03-21T20:21:20.676Z,9.87
2019-03-21T20:23:50.414Z,9.89
2019-03-21T20:26:19.842Z,9.91
2019-03-21T20:28:49.514Z,9.93
2019-03-21T20:31:19.037Z,9.93
2019-03-21T20:33:48.447Z,9.92
2019-03-21T20:36:17.782Z,9.90
2019-03-21T20:38:47.285Z,9.90
2019-03-21T20:41:16.736Z,9.89
2019-03-21T20:43:46.097Z,9.86
2019-03-21T20:46:16.670Z,9.85
2019-03-21T20:48:44.435Z,9.85
2019-03-21T20:51:13.841Z,9.87
2019-03-21T20:53:43.218Z,9.81
2019-03-21T20:56:14.700Z,9.81
2019-03-21T20:58:44.092Z,9.78
2019-03-21T21:01:13.771Z,9.81
2019-03-21T21:03:43.316Z,9.82
2019-03-21T21:06:14.154Z,9.78
2019-03-21T21:08:43.888Z,9.77
2019-03-21T21:11:15.882Z,9.78
2019-03-21T21:13:45.559Z,9.77
2019-03-21T21:16:15.468Z,9.72
2019-03-21T21:18:44.915Z,9.66
2019-03-21T21:21:15.480Z,9.67
2019-03-21T21:23:45.110Z,9.63
2019-03-21T21:26:16.802Z,9.53
2019-03-21T21:28:46.302Z,9.58
2019-03-21T21:31:16.872Z,9.58
2019-03-21T21:33:46.505Z,9.58
2019-03-21T21:36:21.840Z,9.55
2019-03-21T21:38:47.179Z,9.61
2019-03-21T21:41:16.919Z,9.65
2019-03-21T21:43:46.343Z,9.40
2019-03-21T21:46:15.753Z,9.58
2019-03-21T21:48:45.364Z,9.58
2019-03-21T21:51:14.891Z,9.58
2019-03-21T21:53:44.239Z,9.51
2019-03-21T21:56:17.820Z,9.38
2019-03-21T21:58:44.817Z,9.48
2019-03-21T22:01:15.550Z,9.48
2019-03-21T22:03:44.949Z,9.52
2019-03-21T22:06:15.355Z,9.51
2019-03-21T22:08:49.928Z,9.50
2019-03-21T22:11:19.465Z,9.52
2019-03-21T22:13:48.864Z,9.50
2019-03-21T22:16:18.228Z,9.40
2019-03-21T22:18:47.892Z,9.35
2019-03-21T22:21:17.364Z,9.36
2019-03-21T22:23:46.755Z,9.38
2019-03-21T22:26:16.327Z,9.40
2019-03-21T22:28:45.862Z,9.33
2019-03-21T22:37:23.046Z,9.43
2019-03-21T22:39:52.498Z,9.36
2019-03-21T22:42:22.057Z,9.34
2019-03-21T22:44:51.506Z,9.37
2019-03-21T22:47:20.873Z,9.37
2019-03-21T22:49:50.228Z,9.35
2019-03-21T22:52:19.664Z,9.35
2019-03-21T22:54:49.006Z,9.37
2019-03-21T22:57:18.388Z,9.32
2019-03-21T22:59:47.932Z,9.30
2019-03-21T23:02:17.437Z,9.17
2019-03-21T23:04:47.107Z,9.24
2019-03-21T23:07:16.447Z,9.26
2019-03-21T23:09:45.891Z,9.29
2019-03-21T23:12:15.535Z,9.28
2019-03-21T23:14:45.183Z,9.31
2019-03-21T23:17:14.642Z,9.23
2019-03-21T23:19:44.101Z,9.24
2019-03-21T23:22:13.507Z,9.14
2019-03-21T23:24:43.395Z,9.20
2019-03-21T23:27:14.272Z,9.22
2019-03-21T23:29:43.791Z,9.18
2019-03-21T23:32:13.166Z,9.15
2019-03-21T23:34:42.627Z,9.15
2019-03-21T23:37:12.020Z,9.23
2019-03-21T23:39:41.377Z,9.23
2019-03-21T23:42:10.828Z,9.18
2019-03-21T23:44:40.268Z,9.14
2019-03-21T23:47:09.626Z,9.17
2019-03-21T23:49:39.041Z,9.12
2019-03-21T23:52:08.402Z,9.11
2019-03-21T23:54:37.800Z,9.06
2019-03-21T23:57:07.202Z,9.07
2019-03-21T23:59:37.016Z,9.02
